sensor_id;sensor_type;location;lat;lon;timestamp;pressure;altitude;pressure_sealevel;temperature;humidity
58739;BME280;44512;53.046;18.604;2023-02-10T00:04:21;102977.83;;;0.35;53.83
58739;BME280;44512;53.046;18.604;2023-02-10T00:14:49;102967.58;;;0.28;53.78
58739;BME280;44512;53.046;18.604;2023-02-10T00:25:18;102975.04;;;0.21;53.88
58739;BME280;44512;53.046;18.604;2023-02-10T00:35:46;102957.55;;;0.15;54.02
58739;BME280;44512;53.046;18.604;2023-02-10T00:46:17;102952.48;;;0.11;54.11
58739;BME280;44512;53.046;18.604;2023-02-10T00:56:43;102947.44;;;0.05;54.25
58739;BME280;44512;53.046;18.604;2023-02-10T01:07:12;102936.95;;;0.02;54.25
58739;BME280;44512;53.046;18.604;2023-02-10T01:17:40;102949.73;;;-0.05;54.41
58739;BME280;44512;53.046;18.604;2023-02-10T01:28:09;102951.58;;;-0.07;54.63
58739;BME280;44512;53.046;18.604;2023-02-10T01:38:37;102947.29;;;-0.10;54.85
58739;BME280;44512;53.046;18.604;2023-02-10T01:49:11;102928.80;;;-0.13;55.08
58739;BME280;44512;53.046;18.604;2023-02-10T01:59:36;102942.97;;;-0.12;55.29
58739;BME280;44512;53.046;18.604;2023-02-10T02:10:05;102931.37;;;-0.11;55.71
58739;BME280;44512;53.046;18.604;2023-02-10T02:20:48;102946.35;;;-0.09;56.21
58739;BME280;44512;53.046;18.604;2023-02-10T02:41:29;102934.30;;;0.02;56.89
58739;BME280;44512;53.046;18.604;2023-02-10T02:52:05;102936.73;;;0.06;57.20
58739;BME280;44512;53.046;18.604;2023-02-10T03:02:25;102953.10;;;0.16;57.43
58739;BME280;44512;53.046;18.604;2023-02-10T03:12:53;102938.43;;;0.24;57.55
58739;BME280;44512;53.046;18.604;2023-02-10T03:23:22;102936.48;;;0.28;57.94
58739;BME280;44512;53.046;18.604;2023-02-10T03:33:50;102932.72;;;0.32;58.17
58739;BME280;44512;53.046;18.604;2023-02-10T03:44:19;102932.72;;;0.32;58.16
58739;BME280;44512;53.046;18.604;2023-02-10T03:54:47;102935.53;;;0.29;58.24
58739;BME280;44512;53.046;18.604;2023-02-10T04:05:16;102932.09;;;0.27;58.33
58739;BME280;44512;53.046;18.604;2023-02-10T04:15:44;102943.70;;;0.26;58.41
58739;BME280;44512;53.046;18.604;2023-02-10T04:26:12;102935.85;;;0.23;58.79
58739;BME280;44512;53.046;18.604;2023-02-10T04:36:41;102940.22;;;0.24;58.97
58739;BME280;44512;53.046;18.604;2023-02-10T04:47:09;102940.41;;;0.21;59.56
58739;BME280;44512;53.046;18.604;2023-02-10T04:57:38;102932.47;;;0.19;60.09
58739;BME280;44512;53.046;18.604;2023-02-10T05:08:06;102911.11;;;0.21;60.52
58739;BME280;44512;53.046;18.604;2023-02-10T05:18:35;102939.61;;;0.19;60.75
58739;BME280;44512;53.046;18.604;2023-02-10T05:29:03;102947.51;;;0.20;61.17
58739;BME280;44512;53.046;18.604;2023-02-10T05:39:32;102959.11;;;0.19;61.61
58739;BME280;44512;53.046;18.604;2023-02-10T05:50:00;102990.84;;;0.24;61.89
58739;BME280;44512;53.046;18.604;2023-02-10T06:00:28;103000.27;;;0.31;61.97
58739;BME280;44512;53.046;18.604;2023-02-10T06:10:57;103006.99;;;0.38;62.10
58739;BME280;44512;53.046;18.604;2023-02-10T06:21:25;103000.48;;;0.44;62.13
58739;BME280;44512;53.046;18.604;2023-02-10T06:31:54;103025.95;;;0.49;62.18
58739;BME280;44512;53.046;18.604;2023-02-10T06:42:22;103016.86;;;0.54;62.34
58739;BME280;44512;53.046;18.604;2023-02-10T06:52:51;103013.10;;;0.58;62.56
58739;BME280;44512;53.046;18.604;2023-02-10T07:03:19;103003.84;;;0.65;62.80
58739;BME280;44512;53.046;18.604;2023-02-10T07:13:48;103023.11;;;0.70;63.03
58739;BME280;44512;53.046;18.604;2023-02-10T07:24:16;103025.35;;;0.77;63.32
58739;BME280;44512;53.046;18.604;2023-02-10T07:34:45;103030.45;;;0.82;63.58
58739;BME280;44512;53.046;18.604;2023-02-10T07:45:13;103040.88;;;0.87;63.94
58739;BME280;44512;53.046;18.604;2023-02-10T07:55:42;103054.77;;;0.93;64.49
58739;BME280;44512;53.046;18.604;2023-02-10T08:06:10;103043.77;;;0.99;65.19
58739;BME280;44512;53.046;18.604;2023-02-10T08:16:39;103037.00;;;1.10;65.71
58739;BME280;44512;53.046;18.604;2023-02-10T08:27:07;103048.90;;;1.20;66.18
58739;BME280;44512;53.046;18.604;2023-02-10T08:37:36;103057.18;;;1.31;66.81
58739;BME280;44512;53.046;18.604;2023-02-10T08:48:04;103057.45;;;1.42;67.27
58739;BME280;44512;53.046;18.604;2023-02-10T08:58:32;103064.78;;;1.54;67.62
58739;BME280;44512;53.046;18.604;2023-02-10T09:09:01;103051.52;;;1.69;67.76
58739;BME280;44512;53.046;18.604;2023-02-10T09:19:29;103060.59;;;1.82;67.84
58739;BME280;44512;53.046;18.604;2023-02-10T09:35:02;103097.12;;;1.97;68.05
58739;BME280;44512;53.046;18.604;2023-02-10T09:45:36;103103.66;;;2.07;68.33
58739;BME280;44512;53.046;18.604;2023-02-10T09:56:01;103110.01;;;2.21;68.47
58739;BME280;44512;53.046;18.604;2023-02-10T10:06:30;103104.91;;;2.32;68.54
58739;BME280;44512;53.046;18.604;2023-02-10T10:37:54;103113.06;;;2.60;67.92
58739;BME280;44512;53.046;18.604;2023-02-10T10:48:24;103124.23;;;2.67;67.86
58739;BME280;44512;53.046;18.604;2023-02-10T10:58:50;103148.80;;;2.74;67.88
58739;BME280;44512;53.046;18.604;2023-02-10T11:09:26;103147.67;;;2.78;68.11
58739;BME280;44512;53.046;18.604;2023-02-10T11:20:22;103128.77;;;2.81;68.41
58739;BME280;44512;53.046;18.604;2023-02-10T11:30:24;103139.48;;;2.81;68.71
58739;BME280;44512;53.046;18.604;2023-02-10T11:51:16;103139.11;;;2.87;68.93
58739;BME280;44512;53.046;18.604;2023-02-10T12:43:45;103148.89;;;3.02;68.89
58739;BME280;44512;53.046;18.604;2023-02-10T12:54:09;103155.01;;;3.04;68.88
58739;BME280;44512;53.046;18.604;2023-02-10T13:04:37;103150.23;;;3.09;68.99
58739;BME280;44512;53.046;18.604;2023-02-10T13:15:12;103153.70;;;3.11;68.99
58739;BME280;44512;53.046;18.604;2023-02-10T13:25:37;103161.52;;;3.14;68.96
58739;BME280;44512;53.046;18.604;2023-02-10T13:35:57;103182.77;;;3.18;68.85
58739;BME280;44512;53.046;18.604;2023-02-10T13:46:30;103164.02;;;3.18;68.92
58739;BME280;44512;53.046;18.604;2023-02-10T13:56:55;103171.11;;;3.19;68.96
58739;BME280;44512;53.046;18.604;2023-02-10T14:07:32;103178.38;;;3.17;69.16
58739;BME280;44512;53.046;18.604;2023-02-10T14:17:58;103177.69;;;3.13;69.49
58739;BME280;44512;53.046;18.604;2023-02-10T14:28:25;103180.26;;;3.14;69.52
58739;BME280;44512;53.046;18.604;2023-02-10T14:38:54;103185.62;;;3.14;69.46
58739;BME280;44512;53.046;18.604;2023-02-10T14:49:20;103187.37;;;3.16;69.41
58739;BME280;44512;53.046;18.604;2023-02-10T14:59:52;103190.97;;;3.14;69.35
58739;BME280;44512;53.046;18.604;2023-02-10T15:41:43;103192.66;;;3.01;69.83
58739;BME280;44512;53.046;18.604;2023-02-10T15:52:12;103198.02;;;3.01;70.08
58739;BME280;44512;53.046;18.604;2023-02-10T16:02:35;103206.90;;;3.02;70.19
58739;BME280;44512;53.046;18.604;2023-02-10T16:13:03;103200.70;;;3.01;70.30
58739;BME280;44512;53.046;18.604;2023-02-10T16:23:32;103209.48;;;3.03;70.41
58739;BME280;44512;53.046;18.604;2023-02-10T16:34:00;103212.26;;;3.02;70.59
58739;BME280;44512;53.046;18.604;2023-02-10T16:44:28;103220.18;;;3.03;70.76
58739;BME280;44512;53.046;18.604;2023-02-10T16:54:57;103207.59;;;3.05;70.82
58739;BME280;44512;53.046;18.604;2023-02-10T17:05:26;103203.00;;;3.07;70.87
58739;BME280;44512;53.046;18.604;2023-02-10T17:15:54;103195.66;;;3.11;70.94
58739;BME280;44512;53.046;18.604;2023-02-10T17:26:22;103200.82;;;3.14;71.00
58739;BME280;44512;53.046;18.604;2023-02-10T17:36:51;103192.71;;;3.16;71.23
58739;BME280;44512;53.046;18.604;2023-02-10T17:47:19;103187.16;;;3.19;71.17
58739;BME280;44512;53.046;18.604;2023-02-10T17:57:48;103195.87;;;3.22;71.60
58739;BME280;44512;53.046;18.604;2023-02-10T18:08:16;103190.25;;;3.27;71.60
58739;BME280;44512;53.046;18.604;2023-02-10T18:18:45;103182.01;;;3.30;71.51
58739;BME280;44512;53.046;18.604;2023-02-10T18:29:13;103187.20;;;3.33;71.50
58739;BME280;44512;53.046;18.604;2023-02-10T18:39:44;103177.06;;;3.38;71.18
58739;BME280;44512;53.046;18.604;2023-02-10T18:50:10;103181.36;;;3.40;71.07
58739;BME280;44512;53.046;18.604;2023-02-10T19:00:39;103179.47;;;3.43;70.97
58739;BME280;44512;53.046;18.604;2023-02-10T19:11:09;103171.23;;;3.46;70.76
58739;BME280;44512;53.046;18.604;2023-02-10T19:21:35;103150.88;;;3.43;70.61
58739;BME280;44512;53.046;18.604;2023-02-10T19:32:04;103132.13;;;3.43;70.46
58739;BME280;44512;53.046;18.604;2023-02-10T19:42:32;103126.95;;;3.40;70.39
58739;BME280;44512;53.046;18.604;2023-02-10T19:53:01;103102.10;;;3.38;70.39
58739;BME280;44512;53.046;18.604;2023-02-10T20:03:29;103097.72;;;3.37;70.38
58739;BME280;44512;53.046;18.604;2023-02-10T20:13:58;103100.41;;;3.37;70.29
58739;BME280;44512;53.046;18.604;2023-02-10T20:24:26;103104.67;;;3.39;70.19
58739;BME280;44512;53.046;18.604;2023-02-10T20:34:55;103101.89;;;3.41;70.05
58739;BME280;44512;53.046;18.604;2023-02-10T20:45:23;103062.52;;;3.43;69.92
58739;BME280;44512;53.046;18.604;2023-02-10T20:55:51;103055.23;;;3.45;69.82
58739;BME280;44512;53.046;18.604;2023-02-10T21:06:23;103048.92;;;3.46;69.77
58739;BME280;44512;53.046;18.604;2023-02-10T21:16:48;103024.82;;;3.46;69.71
58739;BME280;44512;53.046;18.604;2023-02-10T21:27:17;103024.65;;;3.49;69.72
58739;BME280;44512;53.046;18.604;2023-02-10T21:37:45;102995.08;;;3.51;69.58
58739;BME280;44512;53.046;18.604;2023-02-10T21:48:14;102986.96;;;3.52;69.48
58739;BME280;44512;53.046;18.604;2023-02-10T21:58:42;102962.76;;;3.54;69.33
58739;BME280;44512;53.046;18.604;2023-02-10T22:09:13;102969.71;;;3.56;69.10
58739;BME280;44512;53.046;18.604;2023-02-10T22:19:39;102956.32;;;3.56;68.92
58739;BME280;44512;53.046;18.604;2023-02-10T22:30:08;102934.90;;;3.56;68.83
58739;BME280;44512;53.046;18.604;2023-02-10T22:40:39;102934.90;;;3.56;68.72
58739;BME280;44512;53.046;18.604;2023-02-10T22:51:12;102888.45;;;3.57;68.59
58739;BME280;44512;53.046;18.604;2023-02-10T23:01:38;102855.54;;;3.55;68.51
58739;BME280;44512;53.046;18.604;2023-02-10T23:12:02;102846.00;;;3.51;68.55
58739;BME280;44512;53.046;18.604;2023-02-10T23:22:30;102812.15;;;3.50;68.52
58739;BME280;44512;53.046;18.604;2023-02-10T23:32:58;102806.80;;;3.50;68.56
58739;BME280;44512;53.046;18.604;2023-02-10T23:43:27;102776.60;;;3.48;68.62
58739;BME280;44512;53.046;18.604;2023-02-10T23:53:56;102749.94;;;3.47;68.65
